Time;durP1;ratioP1;P1;durP2;ratioP2;P2;SDS_P1;SDS_P2;PMS_P1;PMS_P2;Temp;Humidity;BMP_temperature;BMP_pressure;BME280_temperature;BME280_humidity;BME280_pressure;Samples;Min_cycle;Max_cycle;Signal;HPM_P1;HPM_P2
2022/03/27 00:01:15;;;;;;;;;38.00;33.75;;;;;18.82;32.62;102398.25;5085374;28;61701;-82
2022/03/27 00:03:41;;;;;;;;;54.50;41.25;;;;;18.79;32.74;102388.41;5085221;28;61717;-82
2022/03/27 00:06:07;;;;;;;;;46.50;34.00;;;;;18.75;32.77;102389.13;5084781;28;61885;-82
2022/03/27 00:08:32;;;;;;;;;43.00;36.50;;;;;18.74;32.89;102391.72;5084726;28;62044;-82
2022/03/27 00:13:42;;;;;;;;;50.75;37.25;;;;;18.70;33.19;102385.41;5085583;28;61835;-82
2022/03/27 00:16:09;;;;;;;;;43.75;34.25;;;;;18.71;33.10;102396.94;5084332;28;61993;-82
2022/03/27 00:18:36;;;;;;;;;50.25;37.25;;;;;18.69;32.92;102388.00;5084765;28;61761;-81
2022/03/27 00:21:03;;;;;;;;;48.75;32.25;;;;;18.66;33.39;102387.84;5084614;28;62286;-82
2022/03/27 00:23:28;;;;;;;;;45.75;36.00;;;;;18.62;33.29;102386.88;5066516;28;62130;-82
2022/03/27 00:25:54;;;;;;;;;50.75;35.50;;;;;18.62;33.17;102386.88;5084028;27;61736;-82
2022/03/27 00:28:20;;;;;;;;;54.00;36.50;;;;;18.58;33.28;102391.16;5066078;28;61761;-82
2022/03/27 00:30:45;;;;;;;;;49.50;37.75;;;;;18.56;33.21;102391.94;5083514;28;61808;-82
2022/03/27 00:33:11;;;;;;;;;46.25;35.50;;;;;18.52;33.35;102390.03;5084795;28;61736;-82
2022/03/27 00:35:36;;;;;;;;;47.75;32.25;;;;;18.50;33.52;102389.94;5082934;27;65040;-82
2022/03/27 00:38:02;;;;;;;;;44.50;36.00;;;;;18.49;33.67;102389.91;5084879;27;61798;-82
2022/03/27 00:40:27;;;;;;;;;37.50;30.75;;;;;18.48;33.57;102386.31;5084172;27;61740;-82
2022/03/27 00:42:53;;;;;;;;;50.50;35.25;;;;;18.46;33.63;102396.00;5084456;28;61780;-82
2022/03/27 00:45:18;;;;;;;;;38.25;32.00;;;;;18.43;33.44;102395.00;5084183;28;62453;-82
2022/03/27 00:47:44;;;;;;;;;43.75;36.50;;;;;18.41;33.80;102391.38;5066077;28;62111;-82
2022/03/27 00:50:10;;;;;;;;;39.75;31.50;;;;;18.41;33.20;102391.38;5084852;28;62056;-82
2022/03/27 00:52:35;;;;;;;;;52.75;40.50;;;;;18.40;33.68;102387.78;5084427;28;61715;-82
2022/03/27 00:55:01;;;;;;;;;57.00;39.00;;;;;18.36;33.96;102386.78;5080771;28;63465;-82
2022/03/27 00:57:26;;;;;;;;;37.50;30.75;;;;;18.38;33.95;102384.16;5083851;28;61777;-82
2022/03/27 00:59:52;;;;;;;;;51.25;36.50;;;;;18.36;34.09;102383.22;5066329;28;61804;-82
2022/03/27 01:02:20;;;;;;;;;45.25;37.50;;;;;18.33;33.67;102386.66;5086056;28;61684;-82
2022/03/27 01:04:45;;;;;;;;;40.00;32.50;;;;;18.32;34.05;102389.28;5067223;28;63689;-82
2022/03/27 01:07:20;;;;;;;;;45.75;35.00;;;;;18.30;33.98;102383.00;5084269;27;61669;-82
2022/03/27 01:09:46;;;;;;;;;41.50;32.75;;;;;18.29;34.20;102386.47;5065211;28;61741;-82
2022/03/27 01:12:22;;;;;;;;;43.00;32.25;;;;;18.29;34.05;102390.03;5084453;28;61731;-82
2022/03/27 01:14:53;;;;;;;;;53.50;38.75;;;;;18.29;33.94;102386.47;5065262;28;63916;-82
2022/03/27 01:17:21;;;;;;;;;45.75;34.00;;;;;18.27;34.28;102380.19;5082797;27;61919;-82
2022/03/27 01:19:50;;;;;;;;;47.00;32.75;;;;;18.25;34.43;102381.88;5084221;28;61839;-82
2022/03/27 01:22:16;;;;;;;;;46.00;35.00;;;;;18.23;34.68;102378.25;5083796;27;62136;-82
2022/03/27 01:24:42;;;;;;;;;48.50;34.25;;;;;18.23;34.55;102376.53;5083163;28;61929;-82
2022/03/27 01:27:09;;;;;;;;;50.25;40.25;;;;;18.22;34.57;102379.13;5083855;28;61862;-82
2022/03/27 01:29:35;;;;;;;;;49.50;32.50;;;;;18.15;34.77;102376.22;5084230;27;61845;-82
2022/03/27 01:32:01;;;;;;;;;48.50;38.00;;;;;18.14;34.91;102371.75;5083987;28;61634;-82
2022/03/27 01:34:26;;;;;;;;;54.75;38.00;;;;;18.14;34.78;102370.84;5083372;27;61826;-82
2022/03/27 01:36:52;;;;;;;;;57.00;41.50;;;;;18.12;34.80;102369.88;5083419;27;61713;-82
2022/03/27 01:39:17;;;;;;;;;47.50;34.75;;;;;18.11;34.86;102365.44;5083810;27;61846;-82
2022/03/27 01:41:44;;;;;;;;;53.00;34.75;;;;;18.08;35.03;102371.53;5084866;27;61922;-82
2022/03/27 01:44:12;;;;;;;;;49.25;36.50;;;;;18.02;35.15;102362.38;5083178;28;61795;-82
2022/03/27 01:46:40;;;;;;;;;43.00;34.75;;;;;17.98;35.09;102359.63;5065584;28;61718;-82
2022/03/27 01:49:08;;;;;;;;;47.50;37.75;;;;;18.00;35.05;102354.38;5065705;28;61984;-82
2022/03/27 01:51:36;;;;;;;;;48.50;36.25;;;;;17.98;35.18;102356.97;5083178;28;61906;-81
2022/03/27 01:54:02;;;;;;;;;45.50;36.25;;;;;17.98;35.24;102356.06;5082833;27;62665;-82
2022/03/27 01:56:28;;;;;;;;;55.50;38.25;;;;;17.95;35.27;102351.53;5083254;27;61760;-82
2022/03/27 01:58:54;;;;;;;;;51.25;38.25;;;;;17.95;35.02;102350.63;5083759;28;61696;-82
2022/03/27 02:01:20;;;;;;;;;53.25;38.00;;;;;17.92;35.40;102350.50;5083887;28;61998;-82
2022/03/27 02:03:46;;;;;;;;;53.50;36.00;;;;;17.90;35.47;102346.88;5082851;27;62134;-82
2022/03/27 02:06:12;;;;;;;;;45.75;34.75;;;;;17.87;35.56;102346.78;5064669;28;61868;-82
2022/03/27 02:08:38;;;;;;;;;42.75;33.50;;;;;17.83;35.50;102343.09;5082949;28;62133;-81
2022/03/27 02:11:04;;;;;;;;;38.50;31.00;;;;;17.81;35.73;102341.19;5083484;27;61789;-82
2022/03/27 02:13:30;;;;;;;;;37.25;30.50;;;;;17.81;35.60;102338.53;5082746;28;61894;-82
2022/03/27 02:15:58;;;;;;;;;47.25;35.25;;;;;17.77;35.87;102341.03;5101704;27;61961;-82
2022/03/27 02:18:26;;;;;;;;;45.50;36.50;;;;;17.75;35.82;102337.41;5103687;27;61712;-82
2022/03/27 02:20:52;;;;;;;;;37.25;31.50;;;;;17.74;35.97;102340.94;5102314;27;61901;-82
2022/03/27 02:23:17;;;;;;;;;34.25;31.25;;;;;17.71;36.05;102343.44;5101700;27;63390;-81
2022/03/27 02:25:43;;;;;;;;;36.25;32.75;;;;;17.72;36.08;102344.38;5103626;27;61941;-82
2022/03/27 02:28:09;;;;;;;;;32.00;26.75;;;;;17.68;35.98;102343.34;5103316;27;61838;-82
2022/03/27 02:30:35;;;;;;;;;28.50;24.00;;;;;17.67;35.95;102346.81;5103836;27;61930;-82
2022/03/27 02:33:00;;;;;;;;;46.25;35.25;;;;;17.67;36.15;102348.56;5102705;27;62626;-82
2022/03/27 02:35:26;;;;;;;;;41.75;32.00;;;;;17.65;36.00;102344.94;5103256;27;61800;-82
2022/03/27 02:37:52;;;;;;;;;42.25;31.25;;;;;17.62;35.85;102351.06;5103575;27;62064;-82
2022/03/27 02:40:17;;;;;;;;;38.25;25.75;;;;;17.62;36.24;102353.72;5103412;27;61873;-82
2022/03/27 02:42:43;;;;;;;;;44.50;35.50;;;;;17.61;36.22;102350.97;5102576;27;61767;-82
2022/03/27 02:45:09;;;;;;;;;42.50;31.25;;;;;17.60;36.21;102358.06;5085099;27;61780;-82
2022/03/27 02:47:35;;;;;;;;;36.50;26.00;;;;;17.56;36.46;102354.34;5085114;27;61885;-82
2022/03/27 02:50:02;;;;;;;;;50.00;34.00;;;;;17.56;36.30;102356.09;5103099;27;62258;-81
2022/03/27 02:52:28;;;;;;;;;39.25;26.00;;;;;17.53;36.23;102345.38;5102362;27;62066;-82
2022/03/27 02:54:54;;;;;;;;;37.50;31.00;;;;;17.53;36.41;102345.38;5102713;27;61857;-82
2022/03/27 02:57:19;;;;;;;;;33.00;28.25;;;;;17.51;36.34;102349.72;5102923;27;61765;-82
2022/03/27 02:59:45;;;;;;;;;32.75;28.75;;;;;17.50;36.46;102347.88;5103347;27;61766;-82
2022/03/27 03:02:11;;;;;;;;;36.75;32.25;;;;;17.49;36.40;102349.66;5102198;27;61800;-82
2022/03/27 03:04:36;;;;;;;;;43.00;34.50;;;;;17.45;36.38;102353.00;5084408;27;61770;-82
2022/03/27 03:07:03;;;;;;;;;40.50;31.00;;;;;17.42;36.57;102351.97;5103094;27;61853;-82
2022/03/27 03:09:29;;;;;;;;;37.50;31.00;;;;;17.40;36.69;102354.59;5102903;27;61736;-82
2022/03/27 03:11:56;;;;;;;;;42.50;31.00;;;;;17.38;36.81;102346.53;5102230;27;63013;-82
2022/03/27 03:14:21;;;;;;;;;41.00;35.00;;;;;17.34;36.75;102352.56;5102866;27;61696;-81
2022/03/27 03:16:47;;;;;;;;;46.00;31.75;;;;;17.33;36.99;102353.44;5102932;27;61849;-82
2022/03/27 03:19:13;;;;;;;;;34.50;31.00;;;;;17.29;36.86;102355.91;5106460;27;62207;-82
2022/03/27 03:21:42;;;;;;;;;31.00;26.25;;;;;17.29;37.10;102359.44;5105763;27;62936;-81
2022/03/27 03:24:09;;;;;;;;;40.00;31.75;;;;;17.28;37.30;102357.63;5106239;27;61869;-81
2022/03/27 03:26:34;;;;;;;;;43.00;29.25;;;;;17.27;37.40;102362.88;5106151;27;61716;-82
2022/03/27 03:29:00;;;;;;;;;33.25;28.00;;;;;17.25;37.11;102361.91;5105347;27;61810;-82
2022/03/27 03:31:25;;;;;;;;;36.00;31.50;;;;;17.21;36.84;102362.63;5105635;27;63448;-81
2022/03/27 03:33:51;;;;;;;;;36.25;30.25;;;;;17.17;37.27;102354.50;5087266;27;61854;-82
2022/03/27 03:36:16;;;;;;;;;32.75;28.50;;;;;17.16;37.21;102355.38;5106495;27;62193;-82
2022/03/27 03:38:42;;;;;;;;;40.25;29.25;;;;;17.16;37.32;102359.78;5106124;27;62071;-81
2022/03/27 03:41:08;;;;;;;;;36.25;28.50;;;;;17.15;37.61;102358.84;5105493;27;61860;-81
2022/03/27 03:43:36;;;;;;;;;39.75;30.25;;;;;17.13;37.77;102355.22;5106054;27;62493;-82
2022/03/27 03:46:03;;;;;;;;;43.50;28.75;;;;;17.11;37.26;102354.25;5087657;27;61944;-82
2022/03/27 03:48:28;;;;;;;;;32.50;25.00;;;;;17.08;37.39;102362.09;5106084;27;61766;-82
2022/03/27 03:50:54;;;;;;;;;40.25;29.00;;;;;17.04;37.61;102362.78;5105361;27;61786;-82
2022/03/27 03:53:19;;;;;;;;;47.00;30.25;;;;;17.02;37.48;102355.63;5105758;27;61863;-82
2022/03/27 03:55:44;;;;;;;;;41.00;26.00;;;;;16.99;37.61;102360.75;5105481;27;61863;-82
2022/03/27 03:58:10;;;;;;;;;38.00;32.25;;;;;16.96;37.62;102358.88;5105776;27;61681;-82
2022/03/27 04:00:36;;;;;;;;;36.25;31.75;;;;;16.96;37.76;102357.13;5105226;27;62292;-82
2022/03/27 04:03:02;;;;;;;;;46.25;31.50;;;;;16.95;37.65;102351.78;5104931;27;62182;-82
2022/03/27 04:05:28;;;;;;;;;42.00;32.75;;;;;16.92;37.74;102352.56;5106141;27;62103;-82
2022/03/27 04:07:54;;;;;;;;;37.00;32.75;;;;;16.92;38.00;102360.53;5106063;27;61660;-81
2022/03/27 04:10:19;;;;;;;;;32.25;27.00;;;;;16.89;37.83;102359.47;5104903;27;61838;-82
2022/03/27 04:12:45;;;;;;;;;35.25;27.75;;;;;16.87;38.09;102358.50;5105585;27;61887;-82
2022/03/27 04:15:11;;;;;;;;;38.50;30.75;;;;;16.84;38.25;102364.59;5086926;27;62041;-81
2022/03/27 04:17:47;;;;;;;;;39.75;29.25;;;;;16.84;37.61;102363.66;5105687;27;61919;-81
2022/03/27 04:20:13;;;;;;;;;35.00;29.50;;;;;16.84;38.01;102361.00;5104840;27;62774;-81
2022/03/27 04:22:42;;;;;;;;;33.00;28.75;;;;;16.83;38.03;102368.06;5105413;27;61847;-81
2022/03/27 04:25:09;;;;;;;;;41.75;30.50;;;;;16.77;38.14;102366.03;5086832;27;61897;-81
2022/03/27 04:27:35;;;;;;;;;38.50;31.00;;;;;16.79;38.20;102366.06;5104047;27;61944;-81
2022/03/27 04:30:08;;;;;;;;;39.25;33.50;;;;;16.76;37.95;102366.84;5103805;27;62145;-82
2022/03/27 04:32:34;;;;;;;;;35.75;29.75;;;;;16.74;38.09;102363.22;5086374;27;62016;-81
2022/03/27 04:34:59;;;;;;;;;37.75;32.00;;;;;16.74;38.14;102368.53;5105596;27;61740;-82
2022/03/27 04:37:25;;;;;;;;;38.50;26.75;;;;;16.73;38.16;102368.44;5105596;27;61820;-81
2022/03/27 04:39:50;;;;;;;;;34.25;27.50;;;;;16.70;38.29;102368.31;5104363;27;62044;-82
2022/03/27 04:42:16;;;;;;;;;36.00;27.75;;;;;16.69;38.41;102375.38;5105098;27;61802;-82
2022/03/27 04:44:41;;;;;;;;;41.75;32.50;;;;;16.70;38.43;102374.53;5105562;27;61770;-82
2022/03/27 04:47:07;;;;;;;;;36.25;30.00;;;;;16.65;38.47;102376.06;5104776;27;61940;-82
2022/03/27 04:49:32;;;;;;;;;39.50;31.75;;;;;16.64;38.57;102379.56;5086187;27;63506;-81
2022/03/27 04:51:58;;;;;;;;;40.00;28.75;;;;;16.62;39.05;102373.28;5105021;27;62059;-81
2022/03/27 04:54:24;;;;;;;;;34.25;26.75;;;;;16.60;38.57;102377.59;5104702;27;61696;-82
2022/03/27 04:56:50;;;;;;;;;34.25;27.75;;;;;16.58;38.55;102384.56;5104788;27;61719;-82
2022/03/27 04:59:16;;;;;;;;;46.00;31.00;;;;;16.55;38.89;102381.78;5102828;27;64967;-82
2022/03/27 05:01:42;;;;;;;;;33.00;28.75;;;;;16.52;38.86;102379.00;5085856;27;61850;-81
2022/03/27 05:04:09;;;;;;;;;34.50;30.25;;;;;16.50;38.71;102378.94;5086525;27;61988;-82
2022/03/27 05:06:34;;;;;;;;;36.50;31.75;;;;;16.49;38.99;102382.41;5105226;27;61853;-82
2022/03/27 05:09:00;;;;;;;;;34.00;29.00;;;;;16.48;38.92;102387.66;5104072;27;63184;-81
2022/03/27 05:11:28;;;;;;;;;34.75;28.75;;;;;16.46;39.20;102382.28;5104725;27;61933;-81
2022/03/27 05:13:54;;;;;;;;;27.00;26.00;;;;;16.45;39.23;102391.09;5104845;27;61909;-82
2022/03/27 05:16:20;;;;;;;;;37.00;28.75;;;;;16.42;38.99;102392.69;5104192;27;61788;-81
2022/03/27 05:18:45;;;;;;;;;40.00;30.50;;;;;16.40;39.27;102391.69;5104198;27;61792;-82
2022/03/27 05:21:11;;;;;;;;;28.50;25.00;;;;;16.39;39.31;102398.75;5104402;27;61881;-82
2022/03/27 05:23:36;;;;;;;;;36.75;28.50;;;;;16.35;39.18;102389.75;5104048;27;61933;-81
2022/03/27 05:26:02;;;;;;;;;40.50;33.50;;;;;16.35;39.28;102400.34;5104013;27;62060;-81
2022/03/27 05:28:28;;;;;;;;;37.50;33.00;;;;;16.34;39.35;102397.59;5103996;27;61953;-82
2022/03/27 05:30:56;;;;;;;;;35.50;28.25;;;;;16.32;39.27;102391.31;5085571;27;61761;-81
2022/03/27 05:33:22;;;;;;;;;38.00;30.25;;;;;16.29;39.47;102394.75;5104185;27;62049;-81
2022/03/27 05:35:48;;;;;;;;;25.50;18.75;;;;;16.29;39.64;102396.50;5086052;27;62161;-82
2022/03/27 05:38:13;;;;;;;;;33.75;28.75;;;;;16.28;39.54;102399.97;5103814;27;63082;-82
2022/03/27 05:40:40;;;;;;;;;34.25;33.25;;;;;16.25;39.68;102398.09;5103712;27;61855;-82
2022/03/27 05:43:07;;;;;;;;;41.50;33.75;;;;;16.23;39.64;102396.22;5085453;27;61786;-82
2022/03/27 05:45:35;;;;;;;;;35.50;31.00;;;;;16.26;39.60;102398.97;5104027;27;61841;-81
2022/03/27 05:48:01;;;;;;;;;39.00;29.25;;;;;16.26;39.65;102401.63;5103733;27;62566;-82
2022/03/27 05:50:26;;;;;;;;;38.25;34.00;;;;;16.27;39.73;102406.13;5104239;27;62002;-82
2022/03/27 05:52:53;;;;;;;;;32.75;28.00;;;;;16.26;39.69;102406.94;5103955;27;61933;-82
2022/03/27 05:55:21;;;;;;;;;36.50;32.50;;;;;16.24;39.36;102404.25;5104054;27;61718;-82
2022/03/27 05:57:47;;;;;;;;;47.75;30.25;;;;;16.25;39.53;102399.84;5102480;27;63087;-81
2022/03/27 06:00:16;;;;;;;;;37.00;28.25;;;;;16.26;39.68;102405.22;5103677;27;61695;-82
2022/03/27 06:02:42;;;;;;;;;32.75;28.75;;;;;16.28;39.59;102400.91;5085783;27;61933;-82
2022/03/27 06:05:08;;;;;;;;;38.75;28.50;;;;;16.30;39.98;102415.13;5102912;27;61947;-82
2022/03/27 06:07:45;;;;;;;;;30.50;24.50;;;;;16.27;39.12;102414.06;5100501;27;61773;-81
2022/03/27 06:10:11;;;;;;;;;44.50;35.25;;;;;16.31;39.90;102416.94;5083200;28;61850;-82
2022/03/27 06:12:37;;;;;;;;;43.00;30.25;;;;;16.33;39.92;102419.66;5082753;27;61872;-82
2022/03/27 06:15:03;;;;;;;;;37.00;28.25;;;;;16.31;39.92;102416.03;5064852;27;61713;-81
2022/03/27 06:17:29;;;;;;;;;43.50;30.50;;;;;16.32;39.91;102418.75;5082861;28;62073;-82
2022/03/27 06:19:54;;;;;;;;;45.00;34.25;;;;;16.35;39.76;102420.63;5064929;28;61805;-82
2022/03/27 06:22:19;;;;;;;;;37.00;34.50;;;;;16.39;40.29;102424.31;5082954;28;62046;-82
2022/03/27 06:24:45;;;;;;;;;32.25;30.25;;;;;16.39;40.09;102422.59;5083197;28;61737;-82
2022/03/27 06:27:10;;;;;;;;;39.25;33.00;;;;;16.42;39.78;102422.72;5081873;28;62733;-82
2022/03/27 06:29:36;;;;;;;;;36.25;28.25;;;;;16.46;39.90;102434.41;5064666;28;61931;-82
2022/03/27 06:32:01;;;;;;;;;35.25;28.00;;;;;16.49;39.73;102431.88;5082999;28;62293;-82
2022/03/27 06:34:29;;;;;;;;;37.75;29.50;;;;;16.50;39.69;102425.75;5081862;28;62151;-82
2022/03/27 06:36:55;;;;;;;;;38.50;30.00;;;;;16.53;39.41;102434.72;5082260;28;62008;-82
2022/03/27 06:39:21;;;;;;;;;39.50;35.00;;;;;16.56;39.58;102436.66;5082821;28;62031;-81
2022/03/27 06:41:46;;;;;;;;;42.75;33.50;;;;;16.61;39.67;102431.56;5082459;28;61709;-80
2022/03/27 06:44:13;;;;;;;;;41.50;34.50;;;;;16.61;39.52;102429.78;5082988;28;62076;-82
2022/03/27 06:46:39;;;;;;;;;45.00;35.00;;;;;16.64;39.65;102436.97;5082520;28;61876;-82
2022/03/27 06:49:05;;;;;;;;;47.25;31.75;;;;;16.69;39.46;102432.81;5082821;28;61945;-81
2022/03/27 06:51:31;;;;;;;;;45.00;35.75;;;;;16.77;39.35;102428.75;5064262;28;61838;-82
2022/03/27 06:53:57;;;;;;;;;36.00;30.75;;;;;16.95;39.12;102428.72;5085682;28;61872;-81
2022/03/27 06:56:23;;;;;;;;;44.50;37.75;;;;;17.18;38.87;102429.72;5084862;28;62817;-81
2022/03/27 06:58:48;;;;;;;;;38.75;32.50;;;;;17.39;38.51;102424.44;5086533;28;62113;-82
2022/03/27 07:03:58;;;;;;;;;28.50;22.50;;;;;18.12;37.36;102423.03;5086693;28;61808;-82
2022/03/27 07:06:24;;;;;;;;;34.25;28.00;;;;;18.34;37.12;102417.72;5085745;28;61858;-82
2022/03/27 07:08:49;;;;;;;;;27.25;26.50;;;;;18.62;36.64;102424.09;5086081;28;61801;-81
2022/03/27 07:11:15;;;;;;;;;35.75;31.50;;;;;18.92;35.98;102426.13;5085662;28;62475;-82
2022/03/27 07:13:41;;;;;;;;;40.25;31.50;;;;;19.21;35.54;102413.84;5086036;28;61727;-82
2022/03/27 07:16:07;;;;;;;;;33.75;30.75;;;;;19.43;35.29;102428.81;5066859;28;63489;-82
2022/03/27 07:18:32;;;;;;;;;33.25;27.00;;;;;19.58;35.06;102420.41;5086117;28;61692;-82
2022/03/27 07:20:59;;;;;;;;;32.75;26.00;;;;;19.66;34.89;102420.69;5067671;28;61794;-82
2022/03/27 07:23:25;;;;;;;;;35.50;30.00;;;;;19.72;34.92;102426.25;5067865;28;62458;-82
2022/03/27 07:25:56;;;;;;;;;38.75;30.25;;;;;19.87;34.74;102423.19;5066145;28;62992;-82
2022/03/27 07:28:22;;;;;;;;;29.00;27.00;;;;;20.18;34.10;102425.97;5085806;28;61922;-82
2022/03/27 07:30:48;;;;;;;;;37.00;32.00;;;;;20.33;33.91;102428.22;5067646;28;61802;-82
2022/03/27 07:33:15;;;;;;;;;36.25;31.25;;;;;20.45;33.83;102424.09;5086107;28;62094;-83
2022/03/27 07:35:41;;;;;;;;;35.25;28.25;;;;;20.78;32.98;102426.88;5085271;28;61761;-82
2022/03/27 07:38:07;;;;;;;;;36.75;33.75;;;;;21.12;32.85;102428.72;5085989;28;61955;-82
2022/03/27 07:40:33;;;;;;;;;32.50;24.25;;;;;21.25;32.37;102429.97;5066761;28;61868;-82
2022/03/27 07:42:59;;;;;;;;;34.00;27.25;;;;;21.08;32.32;102431.28;5085248;28;61848;-82
2022/03/27 07:45:27;;;;;;;;;34.00;27.75;;;;;20.94;32.65;102437.13;5066767;28;64741;-79
2022/03/27 07:47:54;;;;;;;;;30.50;29.00;;;;;20.75;33.02;102435.72;5085682;28;61748;-86
2022/03/27 07:50:21;;;;;;;;;28.25;26.50;;;;;20.59;32.96;102438.81;5085673;28;61982;-84
2022/03/27 07:52:47;;;;;;;;;35.00;29.00;;;;;20.47;32.97;102435.72;5085403;28;61821;-84
2022/03/27 07:55:15;;;;;;;;;38.25;32.50;;;;;20.37;33.39;102438.13;5084119;28;62827;-80
2022/03/27 07:57:45;;;;;;;;;33.75;24.75;;;;;20.28;33.84;102435.16;5078151;28;62431;-82
2022/03/27 08:00:12;;;;;;;;;30.25;27.25;;;;;20.21;33.59;102438.50;5079023;28;62215;-81
2022/03/27 08:02:38;;;;;;;;;42.25;30.25;;;;;20.13;33.61;102435.56;5067342;28;61864;-82
2022/03/27 08:05:05;;;;;;;;;40.50;32.00;;;;;20.12;33.61;102433.78;5082981;27;63915;-84
2022/03/27 08:07:31;;;;;;;;;38.00;33.75;;;;;20.06;33.97;102438.91;5085273;28;61774;-78
2022/03/27 08:09:58;;;;;;;;;29.50;26.50;;;;;20.05;34.05;102439.75;5066348;28;61919;-78
2022/03/27 08:12:23;;;;;;;;;30.50;28.75;;;;;20.10;34.02;102431.94;5085315;28;61761;-78
2022/03/27 08:14:49;;;;;;;;;30.50;26.50;;;;;20.10;33.85;102432.84;5084142;28;62361;-81
2022/03/27 08:17:16;;;;;;;;;66.25;49.00;;;;;20.13;33.99;102440.91;5084788;28;61757;-83
2022/03/27 08:19:43;;;;;;;;;32.75;26.75;;;;;20.18;33.88;102441.97;5084380;28;61883;-82
2022/03/27 08:22:09;;;;;;;;;35.50;28.25;;;;;20.15;33.61;102433.88;5080063;28;62313;-80
2022/03/27 08:24:35;;;;;;;;;32.50;27.50;;;;;20.15;33.54;102438.31;5064714;28;64118;-83
2022/03/27 08:27:02;;;;;;;;;26.50;25.25;;;;;20.08;33.77;102439.88;5072489;28;61947;-83
2022/03/27 08:29:33;;;;;;;;;34.25;29.00;;;;;20.09;33.68;102444.34;5081688;28;61733;-84
2022/03/27 08:32:03;;;;;;;;;37.75;30.00;;;;;20.11;33.84;102439.97;5077903;28;61729;-83
2022/03/27 08:34:31;;;;;;;;;36.00;31.50;;;;;20.11;33.62;102441.72;5057063;28;64100;-82
2022/03/27 08:36:57;;;;;;;;;29.75;25.75;;;;;20.11;33.30;102439.06;5063423;28;62031;-82
2022/03/27 08:39:25;;;;;;;;;21.75;20.75;;;;;20.14;33.37;102444.50;5081391;28;61968;-81
2022/03/27 08:41:56;;;;;;;;;27.25;22.75;;;;;20.18;33.78;102438.38;5061600;28;62281;-81
2022/03/27 08:44:24;;;;;;;;;32.75;32.75;;;;;20.19;33.32;102438.44;5080208;28;62015;-83
2022/03/27 08:46:51;;;;;;;;;35.75;27.25;;;;;20.22;33.53;102433.22;5081982;28;61819;-81
2022/03/27 08:49:26;;;;;;;;;34.00;26.50;;;;;20.27;33.27;102435.13;5082000;27;61917;-81
2022/03/27 08:52:12;;;;;;;;;34.50;27.50;;;;;20.30;33.26;102437.88;5079663;28;62164;-80
2022/03/27 08:54:43;;;;;;;;;44.75;25.25;;;;;20.28;33.17;102434.25;5078128;28;62150;-80
2022/03/27 08:57:37;;;;;;;;;29.00;25.00;;;;;20.28;33.20;102440.50;5082352;28;61948;-81
2022/03/27 09:00:03;;;;;;;;;31.75;24.00;;;;;20.30;33.26;102436.09;5063688;28;61852;-80
2022/03/27 09:02:28;;;;;;;;;34.50;25.00;;;;;20.38;32.76;102439.91;5082053;28;61821;-80
2022/03/27 09:04:55;;;;;;;;;40.00;26.50;;;;;20.45;32.97;102437.44;5081266;28;61946;-80
2022/03/27 09:07:25;;;;;;;;;36.25;30.00;;;;;20.50;33.31;102447.41;5081818;28;62506;-79
2022/03/27 09:09:51;;;;;;;;;36.25;24.00;;;;;20.52;33.16;102448.31;5080447;27;62127;-81
2022/03/27 09:12:19;;;;;;;;;37.25;31.75;;;;;20.57;33.34;102446.75;5060387;28;62251;-80
2022/03/27 09:14:45;;;;;;;;;29.75;25.75;;;;;20.63;33.09;102448.72;5069268;28;62642;-80
2022/03/27 09:17:11;;;;;;;;;36.75;28.75;;;;;20.61;32.72;102443.31;5071614;28;61856;-81
2022/03/27 09:19:39;;;;;;;;;32.50;24.25;;;;;20.65;33.04;102449.63;5082045;28;62018;-81
2022/03/27 09:22:18;;;;;;;;;36.75;31.25;;;;;20.67;32.70;102447.91;5081832;28;62172;-80
2022/03/27 09:24:47;;;;;;;;;24.25;21.25;;;;;20.74;33.05;102444.59;5061735;28;61916;-80
2022/03/27 09:27:16;;;;;;;;;30.75;28.25;;;;;20.80;32.78;102446.50;5078835;28;61773;-79
2022/03/27 09:30:01;;;;;;;;;30.75;24.75;;;;;20.80;32.73;102443.84;5081783;28;62126;-81
2022/03/27 09:32:29;;;;;;;;;31.50;25.25;;;;;20.94;32.53;102452.25;5070651;28;62187;-81
2022/03/27 09:35:17;;;;;;;;;29.00;26.00;;;;;20.97;31.86;102445.25;5064124;28;64385;-80
2022/03/27 09:37:46;;;;;;;;;33.25;24.25;;;;;21.07;32.27;102445.50;5083429;28;61888;-80
2022/03/27 09:40:12;;;;;;;;;32.00;24.50;;;;;21.10;32.29;102435.81;5082951;28;61944;-77
2022/03/27 09:42:40;;;;;;;;;34.25;24.00;;;;;21.11;31.97;102442.97;5083684;28;62198;-86
2022/03/27 09:45:19;;;;;;;;;26.75;21.00;;;;;21.19;32.37;102440.50;5064470;28;63811;-81
2022/03/27 09:47:48;;;;;;;;;32.75;26.50;;;;;21.26;32.09;102442.47;5083532;28;61865;-76
2022/03/27 09:50:34;;;;;;;;;30.50;23.75;;;;;21.30;31.73;102439.03;5063897;28;62018;-78
2022/03/27 09:53:36;;;;;;;;;33.00;27.50;;;;;21.31;31.67;102438.13;5082955;28;61934;-78
2022/03/27 09:56:01;;;;;;;;;25.50;24.00;;;;;21.33;31.84;102431.06;4998268;28;62971;-81
2022/03/27 09:58:43;;;;;;;;;24.50;22.75;;;;;21.42;31.99;102426.03;5000537;28;62002;-83
2022/03/27 10:01:22;;;;;;;;;27.50;24.00;;;;;21.46;31.60;102429.66;5009978;28;62119;-79
2022/03/27 10:04:08;;;;;;;;;24.50;21.50;;;;;21.52;31.15;102431.59;5020327;28;62019;-80
2022/03/27 10:06:39;;;;;;;;;27.50;22.25;;;;;21.56;32.08;102428.16;5019228;28;64271;-80
2022/03/27 10:09:06;;;;;;;;;35.00;29.25;;;;;21.52;31.46;102427.16;5019690;28;62646;-79
2022/03/27 10:11:34;;;;;;;;;28.50;19.25;;;;;21.61;32.12;102426.47;5003325;28;61943;-79
2022/03/27 10:14:00;;;;;;;;;27.50;23.25;;;;;21.67;31.45;102421.28;5018164;28;61953;-84
2022/03/27 10:16:33;;;;;;;;;26.00;22.00;;;;;21.67;31.09;102421.28;5018066;28;63075;-80
2022/03/27 10:19:34;;;;;;;;;35.25;29.75;;;;;21.73;31.12;102415.22;5019938;28;61906;-79
2022/03/27 10:22:02;;;;;;;;;30.00;22.75;;;;;21.78;30.88;102416.22;5003159;28;61993;-77
2022/03/27 10:24:32;;;;;;;;;41.50;24.00;;;;;21.82;31.17;102410.97;5019731;28;62265;-80
2022/03/27 10:27:02;;;;;;;;;36.75;27.00;;;;;21.87;30.92;102415.53;5017146;28;61878;-79
2022/03/27 10:29:28;;;;;;;;;44.00;28.50;;;;;22.00;31.03;102412.28;5022267;28;62048;-79
2022/03/27 10:31:56;;;;;;;;;26.00;24.50;;;;;22.16;31.40;102411.75;5059703;28;61925;-80
2022/03/27 10:34:23;;;;;;;;;30.50;24.75;;;;;22.33;31.28;102403.25;5060715;28;61718;-75
2022/03/27 10:37:04;;;;;;;;;28.25;21.75;;;;;22.47;31.98;102399.09;5068826;28;61847;-76
2022/03/27 10:39:37;;;;;;;;;34.75;26.50;;;;;22.50;30.82;102399.16;5081821;28;61831;-75
2022/03/27 10:42:08;;;;;;;;;37.50;30.00;;;;;22.62;31.16;102398.50;5071564;28;61770;-77
2022/03/27 10:44:53;;;;;;;;;35.25;31.75;;;;;22.77;31.00;102393.47;5061001;28;61865;-78
2022/03/27 10:47:24;;;;;;;;;35.25;29.00;;;;;22.89;30.39;102383.88;5042631;28;63978;-79
2022/03/27 10:50:01;;;;;;;;;26.50;26.50;;;;;23.01;30.17;102386.81;5061536;28;62024;-81
2022/03/27 10:52:27;;;;;;;;;28.25;24.75;;;;;23.15;30.25;102381.72;5043358;28;62377;-76
2022/03/27 10:55:01;;;;;;;;;38.00;30.50;;;;;23.27;29.63;102373.91;5041879;28;62402;-77
2022/03/27 10:57:38;;;;;;;;;28.75;24.50;;;;;23.38;29.26;102369.59;5060842;28;62896;-77
2022/03/27 11:00:06;;;;;;;;;42.00;34.25;;;;;23.41;28.09;102363.41;5061728;28;61760;-76
2022/03/27 11:02:50;;;;;;;;;28.75;24.25;;;;;23.44;27.48;102359.00;5060993;28;61776;-75
2022/03/27 11:05:36;;;;;;;;;35.25;31.00;;;;;23.56;27.98;102355.59;5062035;28;61876;-79
2022/03/27 11:08:17;;;;;;;;;37.75;28.25;;;;;23.71;27.94;102356.72;5043038;28;63741;-82
2022/03/27 11:10:49;;;;;;;;;33.50;28.50;;;;;23.90;28.37;102355.25;5061207;28;61911;-83
2022/03/27 11:13:30;;;;;;;;;32.25;28.50;;;;;24.09;27.39;102347.47;5060006;28;61843;-82
2022/03/27 11:16:15;;;;;;;;;41.75;36.50;;;;;24.34;28.02;102358.53;5051235;28;62170;-80
2022/03/27 11:18:45;;;;;;;;;36.00;26.50;;;;;24.52;26.36;102351.63;5062631;28;64100;-84